IDBO2: Little River, Idabel, OK

Data processed at Thu Oct 17 2019 22:55


All information presented herein is the property of the government of the United States of America and may be revised or deleted at any time without prior notice.
Dissemination of this information without the expressed written consent of the Public Affairs Office, Tulsa District U.S. Army Corps of Engineers is strictly prohibited.
These data are gathered electronically and, as presented, have not undergone any form of quality control. These data are not guaranteed to be valid or correct.
Go to home page.
Go to station list.
Go to home page.

Upstream stations:

Downstream station:
Previous Day
Next Day
Current Day
    
SHEF ID:       IDBO2     Little River blw Lukfata Creek
STATION TYPE:  
Regulating: Stage =    27.50, Flow =    12499

               PRECIP     STAGE  RIV-FLOW  BAT-LOAD
                   in        ft       cfs      volt
              Ccp-Rev   Ccp-Rev   Ccp-Rev   Ccp-Rev
(US/Central)
10/17 00:00      0.00      7.68       863     12.81
10/17 01:00      0.00      7.73       883     12.81
10/17 02:00      0.00      7.78       903     12.73
10/17 03:00      0.00      7.81       915     12.73
10/17 04:00      0.00      7.83       923     12.73
10/17 05:00      0.00      7.85       931     12.73
10/17 06:00      0.00      7.85       931     12.73
10/17 07:00      0.00      7.85       931     12.73
10/17 08:00      0.00      7.84       927     12.65
10/17 09:00      0.00      7.82       919     12.81
10/17 10:00      0.00      7.80       911     13.37
10/17 11:00      0.00      7.77       899     14.08
10/17 12:00      0.00      7.75       891     14.00
10/17 13:00      0.00      7.73       883     13.92
10/17 14:00      0.00      7.71       875     13.53
10/17 15:00      0.00      7.68       863     13.44
10/17 16:00      0.00      7.66       855     13.37
10/17 17:00      0.00      7.62       839     13.37
10/17 18:00      0.00      7.59       828     13.53
10/17 19:00      0.00      7.56       816     13.29
10/17 20:00      0.00      7.54       808     13.05
10/17 21:00      0.00      7.52       800     12.97
10/17 22:00      0.00      7.48       785     12.89
10/17 23:00      ----      ----      ----      ----